sensor_id;sensor_type;location;lat;lon;timestamp;P1;durP1;ratioP1;P2;durP2;ratioP2
16504;SDS011;8365;51.030;4.696;2023-05-29T00:01:07;12.57;;;7.68;;
16504;SDS011;8365;51.030;4.696;2023-05-29T00:03:41;9.15;;;7.22;;
16504;SDS011;8365;51.030;4.696;2023-05-29T00:06:12;13.32;;;8.15;;
16504;SDS011;8365;51.030;4.696;2023-05-29T00:08:43;10.85;;;7.93;;
16504;SDS011;8365;51.030;4.696;2023-05-29T00:11:13;11.63;;;7.45;;
16504;SDS011;8365;51.030;4.696;2023-05-29T00:13:44;11.35;;;7.40;;
16504;SDS011;8365;51.030;4.696;2023-05-29T00:16:15;11.67;;;7.87;;
16504;SDS011;8365;51.030;4.696;2023-05-29T00:18:47;12.90;;;7.93;;
16504;SDS011;8365;51.030;4.696;2023-05-29T00:21:18;10.17;;;8.20;;
16504;SDS011;8365;51.030;4.696;2023-05-29T00:23:53;10.82;;;7.40;;
16504;SDS011;8365;51.030;4.696;2023-05-29T00:26:23;9.13;;;7.43;;
16504;SDS011;8365;51.030;4.696;2023-05-29T00:28:55;9.30;;;7.50;;
16504;SDS011;8365;51.030;4.696;2023-05-29T00:31:25;15.07;;;7.80;;
16504;SDS011;8365;51.030;4.696;2023-05-29T00:33:56;11.20;;;8.13;;
16504;SDS011;8365;51.030;4.696;2023-05-29T00:36:26;12.00;;;8.77;;
16504;SDS011;8365;51.030;4.696;2023-05-29T00:38:58;10.80;;;8.00;;
16504;SDS011;8365;51.030;4.696;2023-05-29T00:41:29;9.07;;;8.07;;
16504;SDS011;8365;51.030;4.696;2023-05-29T00:43:59;10.23;;;7.73;;
16504;SDS011;8365;51.030;4.696;2023-05-29T00:46:31;12.83;;;8.33;;
16504;SDS011;8365;51.030;4.696;2023-05-29T00:49:02;11.05;;;8.45;;
16504;SDS011;8365;51.030;4.696;2023-05-29T00:51:35;12.57;;;7.90;;
16504;SDS011;8365;51.030;4.696;2023-05-29T00:54:06;11.57;;;7.87;;
16504;SDS011;8365;51.030;4.696;2023-05-29T00:56:38;10.07;;;8.67;;
16504;SDS011;8365;51.030;4.696;2023-05-29T00:59:10;11.13;;;7.93;;
16504;SDS011;8365;51.030;4.696;2023-05-29T01:01:41;12.80;;;8.70;;
16504;SDS011;8365;51.030;4.696;2023-05-29T01:04:12;12.10;;;8.70;;
16504;SDS011;8365;51.030;4.696;2023-05-29T01:06:45;13.00;;;7.87;;
16504;SDS011;8365;51.030;4.696;2023-05-29T01:09:15;12.30;;;8.73;;
16504;SDS011;8365;51.030;4.696;2023-05-29T01:25:34;14.53;;;8.83;;
16504;SDS011;8365;51.030;4.696;2023-05-29T01:28:20;10.17;;;8.10;;
16504;SDS011;8365;51.030;4.696;2023-05-29T01:30:53;11.30;;;7.77;;
16504;SDS011;8365;51.030;4.696;2023-05-29T01:33:25;11.73;;;7.53;;
16504;SDS011;8365;51.030;4.696;2023-05-29T01:35:56;12.20;;;8.30;;
16504;SDS011;8365;51.030;4.696;2023-05-29T01:38:27;15.37;;;8.33;;
16504;SDS011;8365;51.030;4.696;2023-05-29T01:40:57;12.67;;;7.37;;
16504;SDS011;8365;51.030;4.696;2023-05-29T01:43:28;8.37;;;7.03;;
16504;SDS011;8365;51.030;4.696;2023-05-29T01:45:59;11.77;;;7.70;;
16504;SDS011;8365;51.030;4.696;2023-05-29T01:48:31;11.90;;;7.77;;
16504;SDS011;8365;51.030;4.696;2023-05-29T01:51:01;12.73;;;7.43;;
16504;SDS011;8365;51.030;4.696;2023-05-29T01:53:32;15.70;;;7.20;;
16504;SDS011;8365;51.030;4.696;2023-05-29T01:56:02;10.90;;;7.37;;
16504;SDS011;8365;51.030;4.696;2023-05-29T01:58:35;11.90;;;7.03;;
16504;SDS011;8365;51.030;4.696;2023-05-29T02:01:06;15.43;;;6.87;;
16504;SDS011;8365;51.030;4.696;2023-05-29T02:03:37;10.93;;;6.60;;
16504;SDS011;8365;51.030;4.696;2023-05-29T02:06:08;11.90;;;6.87;;
16504;SDS011;8365;51.030;4.696;2023-05-29T02:08:38;10.60;;;6.43;;
16504;SDS011;8365;51.030;4.696;2023-05-29T02:11:09;9.90;;;6.40;;
16504;SDS011;8365;51.030;4.696;2023-05-29T02:13:40;10.97;;;6.20;;
16504;SDS011;8365;51.030;4.696;2023-05-29T02:16:11;13.60;;;5.83;;
16504;SDS011;8365;51.030;4.696;2023-05-29T02:18:42;10.40;;;5.70;;
16504;SDS011;8365;51.030;4.696;2023-05-29T02:21:13;11.60;;;5.60;;
16504;SDS011;8365;51.030;4.696;2023-05-29T02:23:43;12.23;;;5.40;;
16504;SDS011;8365;51.030;4.696;2023-05-29T02:26:14;13.00;;;5.20;;
16504;SDS011;8365;51.030;4.696;2023-05-29T02:28:45;8.97;;;4.53;;
16504;SDS011;8365;51.030;4.696;2023-05-29T02:31:16;6.87;;;5.00;;
16504;SDS011;8365;51.030;4.696;2023-05-29T02:33:48;12.40;;;4.60;;
16504;SDS011;8365;51.030;4.696;2023-05-29T02:36:19;14.13;;;5.10;;
16504;SDS011;8365;51.030;4.696;2023-05-29T02:38:52;13.77;;;5.43;;
16504;SDS011;8365;51.030;4.696;2023-05-29T02:41:22;9.73;;;4.60;;
16504;SDS011;8365;51.030;4.696;2023-05-29T02:43:53;13.57;;;4.63;;
16504;SDS011;8365;51.030;4.696;2023-05-29T02:46:23;7.90;;;4.43;;
16504;SDS011;8365;51.030;4.696;2023-05-29T02:48:56;7.87;;;4.67;;
16504;SDS011;8365;51.030;4.696;2023-05-29T02:51:27;11.50;;;4.53;;
16504;SDS011;8365;51.030;4.696;2023-05-29T02:53:57;14.50;;;4.80;;
16504;SDS011;8365;51.030;4.696;2023-05-29T02:56:30;19.60;;;4.47;;
16504;SDS011;8365;51.030;4.696;2023-05-29T02:59:01;11.17;;;4.93;;
16504;SDS011;8365;51.030;4.696;2023-05-29T03:01:31;12.90;;;4.33;;
16504;SDS011;8365;51.030;4.696;2023-05-29T03:04:02;11.60;;;4.47;;
16504;SDS011;8365;51.030;4.696;2023-05-29T03:06:33;15.30;;;5.17;;
16504;SDS011;8365;51.030;4.696;2023-05-29T03:09:04;9.53;;;4.43;;
16504;SDS011;8365;51.030;4.696;2023-05-29T03:11:37;10.17;;;4.33;;
16504;SDS011;8365;51.030;4.696;2023-05-29T03:14:10;11.63;;;4.57;;
16504;SDS011;8365;51.030;4.696;2023-05-29T03:16:41;11.23;;;4.70;;
16504;SDS011;8365;51.030;4.696;2023-05-29T03:19:11;9.83;;;4.27;;
16504;SDS011;8365;51.030;4.696;2023-05-29T03:21:42;12.03;;;4.20;;
16504;SDS011;8365;51.030;4.696;2023-05-29T03:24:13;10.17;;;3.87;;
16504;SDS011;8365;51.030;4.696;2023-05-29T03:26:43;9.90;;;4.70;;
16504;SDS011;8365;51.030;4.696;2023-05-29T03:29:13;11.33;;;4.00;;
16504;SDS011;8365;51.030;4.696;2023-05-29T03:31:44;11.23;;;4.73;;
16504;SDS011;8365;51.030;4.696;2023-05-29T03:34:15;8.03;;;3.67;;
16504;SDS011;8365;51.030;4.696;2023-05-29T03:36:46;10.93;;;4.37;;
16504;SDS011;8365;51.030;4.696;2023-05-29T03:39:19;15.00;;;4.80;;
16504;SDS011;8365;51.030;4.696;2023-05-29T03:41:49;10.50;;;4.40;;
16504;SDS011;8365;51.030;4.696;2023-05-29T03:44:20;9.07;;;4.13;;
16504;SDS011;8365;51.030;4.696;2023-05-29T03:46:50;12.07;;;4.03;;
16504;SDS011;8365;51.030;4.696;2023-05-29T03:49:23;10.47;;;3.87;;
16504;SDS011;8365;51.030;4.696;2023-05-29T03:51:54;12.23;;;4.47;;
16504;SDS011;8365;51.030;4.696;2023-05-29T03:54:24;11.47;;;4.20;;
16504;SDS011;8365;51.030;4.696;2023-05-29T03:56:55;17.03;;;4.50;;
16504;SDS011;8365;51.030;4.696;2023-05-29T03:59:25;9.50;;;4.00;;
16504;SDS011;8365;51.030;4.696;2023-05-29T04:01:56;11.93;;;4.10;;
16504;SDS011;8365;51.030;4.696;2023-05-29T04:04:29;9.20;;;3.80;;
16504;SDS011;8365;51.030;4.696;2023-05-29T04:07:01;10.83;;;3.50;;
16504;SDS011;8365;51.030;4.696;2023-05-29T04:09:32;10.77;;;4.23;;
16504;SDS011;8365;51.030;4.696;2023-05-29T04:12:03;14.67;;;4.27;;
16504;SDS011;8365;51.030;4.696;2023-05-29T04:14:35;12.17;;;3.90;;
16504;SDS011;8365;51.030;4.696;2023-05-29T04:17:06;9.03;;;3.77;;
16504;SDS011;8365;51.030;4.696;2023-05-29T04:19:37;10.33;;;4.63;;
16504;SDS011;8365;51.030;4.696;2023-05-29T04:22:07;10.77;;;4.13;;
16504;SDS011;8365;51.030;4.696;2023-05-29T04:24:38;8.37;;;4.13;;
16504;SDS011;8365;51.030;4.696;2023-05-29T04:27:08;11.23;;;3.77;;
16504;SDS011;8365;51.030;4.696;2023-05-29T04:29:43;9.27;;;4.33;;
16504;SDS011;8365;51.030;4.696;2023-05-29T04:32:13;14.53;;;4.43;;
16504;SDS011;8365;51.030;4.696;2023-05-29T04:34:44;13.03;;;4.67;;
16504;SDS011;8365;51.030;4.696;2023-05-29T04:37:14;11.03;;;4.03;;
16504;SDS011;8365;51.030;4.696;2023-05-29T04:39:48;13.47;;;4.10;;
16504;SDS011;8365;51.030;4.696;2023-05-29T04:42:18;8.37;;;3.53;;
16504;SDS011;8365;51.030;4.696;2023-05-29T04:44:49;9.87;;;4.40;;
16504;SDS011;8365;51.030;4.696;2023-05-29T04:47:19;10.10;;;3.73;;
16504;SDS011;8365;51.030;4.696;2023-05-29T04:49:50;10.60;;;3.97;;
16504;SDS011;8365;51.030;4.696;2023-05-29T04:52:21;9.47;;;3.97;;
16504;SDS011;8365;51.030;4.696;2023-05-29T04:54:52;14.67;;;4.50;;
16504;SDS011;8365;51.030;4.696;2023-05-29T04:57:24;11.23;;;4.40;;
16504;SDS011;8365;51.030;4.696;2023-05-29T04:59:54;9.60;;;4.13;;
16504;SDS011;8365;51.030;4.696;2023-05-29T05:02:27;14.80;;;4.90;;
16504;SDS011;8365;51.030;4.696;2023-05-29T05:04:57;11.57;;;4.47;;
16504;SDS011;8365;51.030;4.696;2023-05-29T05:07:30;8.73;;;3.87;;
16504;SDS011;8365;51.030;4.696;2023-05-29T05:10:03;11.10;;;4.57;;
16504;SDS011;8365;51.030;4.696;2023-05-29T05:12:37;9.73;;;3.80;;
16504;SDS011;8365;51.030;4.696;2023-05-29T05:15:07;13.33;;;3.90;;
16504;SDS011;8365;51.030;4.696;2023-05-29T05:17:38;14.27;;;4.73;;
16504;SDS011;8365;51.030;4.696;2023-05-29T05:20:10;8.30;;;4.33;;
16504;SDS011;8365;51.030;4.696;2023-05-29T05:22:41;12.80;;;4.63;;
16504;SDS011;8365;51.030;4.696;2023-05-29T05:25:11;14.73;;;4.67;;
16504;SDS011;8365;51.030;4.696;2023-05-29T05:27:42;14.07;;;5.03;;
16504;SDS011;8365;51.030;4.696;2023-05-29T05:30:12;11.47;;;4.30;;
16504;SDS011;8365;51.030;4.696;2023-05-29T05:32:43;13.23;;;4.70;;
16504;SDS011;8365;51.030;4.696;2023-05-29T05:35:13;13.60;;;4.50;;
16504;SDS011;8365;51.030;4.696;2023-05-29T05:37:44;10.83;;;4.40;;
16504;SDS011;8365;51.030;4.696;2023-05-29T05:40:15;10.63;;;4.40;;
16504;SDS011;8365;51.030;4.696;2023-05-29T05:42:45;9.30;;;4.40;;
16504;SDS011;8365;51.030;4.696;2023-05-29T05:45:16;13.70;;;4.73;;
16504;SDS011;8365;51.030;4.696;2023-05-29T05:47:47;11.73;;;4.10;;
16504;SDS011;8365;51.030;4.696;2023-05-29T05:50:17;13.13;;;4.43;;
16504;SDS011;8365;51.030;4.696;2023-05-29T05:52:48;12.77;;;4.23;;
16504;SDS011;8365;51.030;4.696;2023-05-29T05:55:18;11.63;;;4.60;;
16504;SDS011;8365;51.030;4.696;2023-05-29T05:57:49;10.57;;;4.10;;
16504;SDS011;8365;51.030;4.696;2023-05-29T06:00:19;13.93;;;4.47;;
16504;SDS011;8365;51.030;4.696;2023-05-29T06:02:50;11.50;;;4.20;;
16504;SDS011;8365;51.030;4.696;2023-05-29T06:05:20;10.27;;;4.13;;
16504;SDS011;8365;51.030;4.696;2023-05-29T06:07:51;14.27;;;4.63;;
16504;SDS011;8365;51.030;4.696;2023-05-29T06:10:21;13.97;;;4.40;;
16504;SDS011;8365;51.030;4.696;2023-05-29T06:12:52;12.67;;;4.33;;
16504;SDS011;8365;51.030;4.696;2023-05-29T06:15:22;14.30;;;4.67;;
16504;SDS011;8365;51.030;4.696;2023-05-29T06:17:55;10.60;;;4.50;;
16504;SDS011;8365;51.030;4.696;2023-05-29T06:20:25;11.13;;;4.63;;
16504;SDS011;8365;51.030;4.696;2023-05-29T06:22:56;12.30;;;4.33;;
16504;SDS011;8365;51.030;4.696;2023-05-29T06:25:26;12.33;;;4.10;;
16504;SDS011;8365;51.030;4.696;2023-05-29T06:28:03;9.97;;;4.03;;
16504;SDS011;8365;51.030;4.696;2023-05-29T06:30:35;15.20;;;4.63;;
16504;SDS011;8365;51.030;4.696;2023-05-29T06:33:06;9.93;;;3.90;;
16504;SDS011;8365;51.030;4.696;2023-05-29T06:35:36;11.13;;;3.70;;
16504;SDS011;8365;51.030;4.696;2023-05-29T06:38:07;9.40;;;3.87;;
16504;SDS011;8365;51.030;4.696;2023-05-29T06:40:37;10.80;;;4.40;;
16504;SDS011;8365;51.030;4.696;2023-05-29T06:43:08;7.83;;;3.60;;
16504;SDS011;8365;51.030;4.696;2023-05-29T06:45:39;8.97;;;3.90;;
16504;SDS011;8365;51.030;4.696;2023-05-29T06:48:10;9.50;;;4.00;;
16504;SDS011;8365;51.030;4.696;2023-05-29T06:50:41;9.20;;;4.17;;
16504;SDS011;8365;51.030;4.696;2023-05-29T06:53:11;9.53;;;3.77;;
16504;SDS011;8365;51.030;4.696;2023-05-29T06:55:42;8.37;;;3.87;;
16504;SDS011;8365;51.030;4.696;2023-05-29T06:58:12;11.87;;;3.90;;
16504;SDS011;8365;51.030;4.696;2023-05-29T07:00:43;11.13;;;4.13;;
16504;SDS011;8365;51.030;4.696;2023-05-29T07:03:13;7.60;;;3.70;;
16504;SDS011;8365;51.030;4.696;2023-05-29T07:05:44;13.50;;;3.90;;
16504;SDS011;8365;51.030;4.696;2023-05-29T07:08:15;8.60;;;3.70;;
16504;SDS011;8365;51.030;4.696;2023-05-29T07:10:45;7.10;;;3.60;;
16504;SDS011;8365;51.030;4.696;2023-05-29T07:13:16;12.17;;;3.83;;
16504;SDS011;8365;51.030;4.696;2023-05-29T07:15:48;6.30;;;3.93;;
16504;SDS011;8365;51.030;4.696;2023-05-29T07:18:18;7.70;;;3.40;;
16504;SDS011;8365;51.030;4.696;2023-05-29T07:20:49;13.70;;;4.70;;
16504;SDS011;8365;51.030;4.696;2023-05-29T07:23:22;9.07;;;3.60;;
16504;SDS011;8365;51.030;4.696;2023-05-29T07:25:53;9.43;;;3.78;;
16504;SDS011;8365;51.030;4.696;2023-05-29T07:28:24;10.00;;;3.93;;
16504;SDS011;8365;51.030;4.696;2023-05-29T07:30:55;8.73;;;4.07;;
16504;SDS011;8365;51.030;4.696;2023-05-29T07:33:25;10.18;;;4.63;;
16504;SDS011;8365;51.030;4.696;2023-05-29T07:35:56;9.47;;;4.07;;
16504;SDS011;8365;51.030;4.696;2023-05-29T07:38:26;9.65;;;3.75;;
16504;SDS011;8365;51.030;4.696;2023-05-29T07:40:57;12.27;;;3.88;;
16504;SDS011;8365;51.030;4.696;2023-05-29T07:43:27;9.90;;;4.10;;
16504;SDS011;8365;51.030;4.696;2023-05-29T07:45:58;10.00;;;3.80;;
16504;SDS011;8365;51.030;4.696;2023-05-29T07:48:31;12.18;;;4.63;;
16504;SDS011;8365;51.030;4.696;2023-05-29T07:51:03;12.93;;;4.20;;
16504;SDS011;8365;51.030;4.696;2023-05-29T07:53:39;11.80;;;3.80;;
16504;SDS011;8365;51.030;4.696;2023-05-29T07:56:12;10.52;;;4.00;;
16504;SDS011;8365;51.030;4.696;2023-05-29T07:58:43;9.43;;;4.03;;
16504;SDS011;8365;51.030;4.696;2023-05-29T08:01:13;8.63;;;3.88;;
16504;SDS011;8365;51.030;4.696;2023-05-29T08:03:44;9.65;;;3.90;;
16504;SDS011;8365;51.030;4.696;2023-05-29T08:06:15;11.48;;;3.95;;
16504;SDS011;8365;51.030;4.696;2023-05-29T08:08:45;11.30;;;4.47;;
16504;SDS011;8365;51.030;4.696;2023-05-29T08:11:16;10.90;;;4.53;;
16504;SDS011;8365;51.030;4.696;2023-05-29T08:13:47;13.73;;;4.00;;
16504;SDS011;8365;51.030;4.696;2023-05-29T08:16:17;11.55;;;4.22;;
16504;SDS011;8365;51.030;4.696;2023-05-29T08:18:47;13.10;;;4.25;;
16504;SDS011;8365;51.030;4.696;2023-05-29T08:21:18;12.85;;;4.20;;
16504;SDS011;8365;51.030;4.696;2023-05-29T08:23:49;8.82;;;3.80;;
16504;SDS011;8365;51.030;4.696;2023-05-29T08:26:19;10.50;;;4.13;;
16504;SDS011;8365;51.030;4.696;2023-05-29T08:28:50;12.55;;;4.40;;
16504;SDS011;8365;51.030;4.696;2023-05-29T08:31:24;8.77;;;3.92;;
16504;SDS011;8365;51.030;4.696;2023-05-29T08:33:55;12.98;;;4.28;;
16504;SDS011;8365;51.030;4.696;2023-05-29T08:36:26;15.25;;;4.65;;
16504;SDS011;8365;51.030;4.696;2023-05-29T08:38:56;7.95;;;3.78;;
16504;SDS011;8365;51.030;4.696;2023-05-29T08:41:40;12.70;;;4.50;;
16504;SDS011;8365;51.030;4.696;2023-05-29T08:44:19;10.38;;;3.90;;
16504;SDS011;8365;51.030;4.696;2023-05-29T08:46:54;10.13;;;4.10;;
16504;SDS011;8365;51.030;4.696;2023-05-29T08:49:25;10.77;;;3.75;;
16504;SDS011;8365;51.030;4.696;2023-05-29T08:52:05;11.48;;;4.03;;
16504;SDS011;8365;51.030;4.696;2023-05-29T08:54:46;8.75;;;3.80;;
16504;SDS011;8365;51.030;4.696;2023-05-29T08:57:17;9.90;;;3.83;;
16504;SDS011;8365;51.030;4.696;2023-05-29T08:59:49;6.78;;;3.40;;
16504;SDS011;8365;51.030;4.696;2023-05-29T09:02:22;9.25;;;3.53;;
16504;SDS011;8365;51.030;4.696;2023-05-29T09:04:53;9.55;;;4.43;;
16504;SDS011;8365;51.030;4.696;2023-05-29T09:07:24;9.75;;;3.83;;
16504;SDS011;8365;51.030;4.696;2023-05-29T09:09:56;10.32;;;3.85;;
16504;SDS011;8365;51.030;4.696;2023-05-29T09:12:26;10.80;;;4.20;;
16504;SDS011;8365;51.030;4.696;2023-05-29T09:14:57;11.05;;;3.85;;
16504;SDS011;8365;51.030;4.696;2023-05-29T09:17:30;8.00;;;3.63;;
16504;SDS011;8365;51.030;4.696;2023-05-29T09:20:03;8.65;;;3.65;;
16504;SDS011;8365;51.030;4.696;2023-05-29T09:22:53;10.70;;;4.22;;
16504;SDS011;8365;51.030;4.696;2023-05-29T09:25:26;7.45;;;4.10;;
16504;SDS011;8365;51.030;4.696;2023-05-29T09:27:59;7.30;;;3.63;;
16504;SDS011;8365;51.030;4.696;2023-05-29T09:30:39;10.30;;;4.05;;
16504;SDS011;8365;51.030;4.696;2023-05-29T09:33:11;8.68;;;3.50;;
16504;SDS011;8365;51.030;4.696;2023-05-29T09:35:44;8.10;;;3.30;;
16504;SDS011;8365;51.030;4.696;2023-05-29T09:38:16;7.22;;;3.25;;
16504;SDS011;8365;51.030;4.696;2023-05-29T09:40:48;7.53;;;3.05;;
16504;SDS011;8365;51.030;4.696;2023-05-29T09:43:18;13.20;;;4.00;;
16504;SDS011;8365;51.030;4.696;2023-05-29T09:45:50;10.73;;;3.97;;
16504;SDS011;8365;51.030;4.696;2023-05-29T09:48:24;8.23;;;3.17;;
16504;SDS011;8365;51.030;4.696;2023-05-29T09:50:56;7.97;;;3.55;;
16504;SDS011;8365;51.030;4.696;2023-05-29T09:53:28;11.25;;;3.70;;
16504;SDS011;8365;51.030;4.696;2023-05-29T09:55:59;7.38;;;3.00;;
16504;SDS011;8365;51.030;4.696;2023-05-29T09:58:30;11.20;;;3.58;;
16504;SDS011;8365;51.030;4.696;2023-05-29T10:01:03;8.90;;;3.72;;
16504;SDS011;8365;51.030;4.696;2023-05-29T10:03:36;6.13;;;3.13;;
16504;SDS011;8365;51.030;4.696;2023-05-29T10:06:15;9.50;;;3.67;;
16504;SDS011;8365;51.030;4.696;2023-05-29T10:08:48;7.72;;;3.08;;
16504;SDS011;8365;51.030;4.696;2023-05-29T10:11:23;9.77;;;3.40;;
16504;SDS011;8365;51.030;4.696;2023-05-29T10:13:59;8.75;;;2.97;;
16504;SDS011;8365;51.030;4.696;2023-05-29T10:16:30;5.43;;;2.88;;
16504;SDS011;8365;51.030;4.696;2023-05-29T10:19:05;7.57;;;3.30;;
16504;SDS011;8365;51.030;4.696;2023-05-29T10:21:43;6.38;;;3.10;;
16504;SDS011;8365;51.030;4.696;2023-05-29T10:24:14;8.13;;;3.13;;
16504;SDS011;8365;51.030;4.696;2023-05-29T10:26:46;7.32;;;3.00;;
16504;SDS011;8365;51.030;4.696;2023-05-29T10:29:23;7.65;;;3.15;;
16504;SDS011;8365;51.030;4.696;2023-05-29T10:34:55;7.43;;;3.47;;
16504;SDS011;8365;51.030;4.696;2023-05-29T10:37:37;9.70;;;3.30;;
16504;SDS011;8365;51.030;4.696;2023-05-29T10:40:14;6.13;;;3.20;;
16504;SDS011;8365;51.030;4.696;2023-05-29T10:42:47;7.07;;;3.30;;
16504;SDS011;8365;51.030;4.696;2023-05-29T10:46:04;8.27;;;3.08;;
16504;SDS011;8365;51.030;4.696;2023-05-29T10:50:44;7.53;;;3.50;;
16504;SDS011;8365;51.030;4.696;2023-05-29T10:53:17;7.30;;;3.33;;
16504;SDS011;8365;51.030;4.696;2023-05-29T10:55:53;6.70;;;2.97;;
16504;SDS011;8365;51.030;4.696;2023-05-29T10:58:24;8.82;;;3.40;;
16504;SDS011;8365;51.030;4.696;2023-05-29T11:00:56;6.55;;;2.95;;
16504;SDS011;8365;51.030;4.696;2023-05-29T11:03:32;9.05;;;3.17;;
16504;SDS011;8365;51.030;4.696;2023-05-29T11:06:06;8.90;;;3.45;;
16504;SDS011;8365;51.030;4.696;2023-05-29T11:08:53;8.50;;;2.78;;
16504;SDS011;8365;51.030;4.696;2023-05-29T11:14:01;7.22;;;3.28;;
16504;SDS011;8365;51.030;4.696;2023-05-29T11:19:05;5.38;;;2.90;;
16504;SDS011;8365;51.030;4.696;2023-05-29T11:21:53;9.57;;;3.38;;
16504;SDS011;8365;51.030;4.696;2023-05-29T11:24:39;11.65;;;3.03;;
16504;SDS011;8365;51.030;4.696;2023-05-29T11:27:10;7.43;;;3.47;;
16504;SDS011;8365;51.030;4.696;2023-05-29T11:29:44;8.80;;;3.47;;
16504;SDS011;8365;51.030;4.696;2023-05-29T11:32:15;7.65;;;3.15;;
16504;SDS011;8365;51.030;4.696;2023-05-29T11:34:47;7.13;;;3.22;;
16504;SDS011;8365;51.030;4.696;2023-05-29T11:37:20;6.10;;;2.67;;
16504;SDS011;8365;51.030;4.696;2023-05-29T11:39:52;8.52;;;3.30;;
16504;SDS011;8365;51.030;4.696;2023-05-29T11:42:25;7.50;;;2.78;;
16504;SDS011;8365;51.030;4.696;2023-05-29T11:44:55;6.35;;;3.03;;
16504;SDS011;8365;51.030;4.696;2023-05-29T11:47:54;4.75;;;2.80;;
16504;SDS011;8365;51.030;4.696;2023-05-29T11:50:32;6.68;;;2.75;;
16504;SDS011;8365;51.030;4.696;2023-05-29T11:53:07;8.13;;;3.78;;
16504;SDS011;8365;51.030;4.696;2023-05-29T11:55:40;10.32;;;3.40;;
16504;SDS011;8365;51.030;4.696;2023-05-29T11:58:11;6.38;;;3.47;;
16504;SDS011;8365;51.030;4.696;2023-05-29T12:00:42;7.25;;;3.00;;
16504;SDS011;8365;51.030;4.696;2023-05-29T12:03:13;4.78;;;2.85;;
16504;SDS011;8365;51.030;4.696;2023-05-29T12:05:44;5.85;;;3.03;;
16504;SDS011;8365;51.030;4.696;2023-05-29T12:08:16;8.65;;;3.22;;
16504;SDS011;8365;51.030;4.696;2023-05-29T12:10:49;5.20;;;3.00;;
16504;SDS011;8365;51.030;4.696;2023-05-29T12:13:21;5.50;;;3.10;;
16504;SDS011;8365;51.030;4.696;2023-05-29T12:15:54;6.85;;;3.10;;
16504;SDS011;8365;51.030;4.696;2023-05-29T12:18:28;6.05;;;3.28;;
16504;SDS011;8365;51.030;4.696;2023-05-29T12:21:02;6.40;;;3.33;;
16504;SDS011;8365;51.030;4.696;2023-05-29T12:23:37;7.38;;;3.42;;
16504;SDS011;8365;51.030;4.696;2023-05-29T12:26:09;6.63;;;2.92;;
16504;SDS011;8365;51.030;4.696;2023-05-29T12:28:44;9.93;;;3.55;;
16504;SDS011;8365;51.030;4.696;2023-05-29T12:31:25;8.35;;;3.25;;
16504;SDS011;8365;51.030;4.696;2023-05-29T12:34:08;6.72;;;3.47;;
16504;SDS011;8365;51.030;4.696;2023-05-29T12:36:40;6.57;;;3.33;;
16504;SDS011;8365;51.030;4.696;2023-05-29T12:39:11;7.97;;;3.20;;
16504;SDS011;8365;51.030;4.696;2023-05-29T12:41:42;6.00;;;3.35;;
16504;SDS011;8365;51.030;4.696;2023-05-29T12:44:12;8.80;;;3.45;;
16504;SDS011;8365;51.030;4.696;2023-05-29T12:46:43;8.63;;;3.45;;
16504;SDS011;8365;51.030;4.696;2023-05-29T12:49:17;6.15;;;3.10;;
16504;SDS011;8365;51.030;4.696;2023-05-29T12:51:51;7.95;;;3.35;;
16504;SDS011;8365;51.030;4.696;2023-05-29T12:54:24;8.90;;;3.30;;
16504;SDS011;8365;51.030;4.696;2023-05-29T12:56:55;5.38;;;3.35;;
16504;SDS011;8365;51.030;4.696;2023-05-29T12:59:26;10.25;;;3.47;;
16504;SDS011;8365;51.030;4.696;2023-05-29T13:01:56;7.45;;;3.53;;
16504;SDS011;8365;51.030;4.696;2023-05-29T13:04:27;6.72;;;3.20;;
16504;SDS011;8365;51.030;4.696;2023-05-29T13:06:57;7.45;;;3.17;;
16504;SDS011;8365;51.030;4.696;2023-05-29T13:09:27;8.05;;;3.47;;
16504;SDS011;8365;51.030;4.696;2023-05-29T13:11:58;5.55;;;3.40;;
16504;SDS011;8365;51.030;4.696;2023-05-29T13:14:28;7.55;;;3.20;;
16504;SDS011;8365;51.030;4.696;2023-05-29T13:16:59;6.53;;;3.20;;
16504;SDS011;8365;51.030;4.696;2023-05-29T13:19:29;5.35;;;3.65;;
16504;SDS011;8365;51.030;4.696;2023-05-29T13:22:00;7.45;;;3.53;;
16504;SDS011;8365;51.030;4.696;2023-05-29T13:24:30;6.85;;;3.22;;
16504;SDS011;8365;51.030;4.696;2023-05-29T13:27:01;8.52;;;3.33;;
16504;SDS011;8365;51.030;4.696;2023-05-29T13:29:32;6.55;;;3.13;;
16504;SDS011;8365;51.030;4.696;2023-05-29T13:32:02;8.10;;;3.22;;
16504;SDS011;8365;51.030;4.696;2023-05-29T13:34:33;7.78;;;3.20;;
16504;SDS011;8365;51.030;4.696;2023-05-29T13:37:04;7.22;;;3.45;;
16504;SDS011;8365;51.030;4.696;2023-05-29T13:39:34;9.30;;;3.20;;
16504;SDS011;8365;51.030;4.696;2023-05-29T13:42:05;10.55;;;3.28;;
16504;SDS011;8365;51.030;4.696;2023-05-29T13:44:37;4.28;;;3.00;;
16504;SDS011;8365;51.030;4.696;2023-05-29T13:47:08;5.47;;;3.22;;
16504;SDS011;8365;51.030;4.696;2023-05-29T13:49:41;5.75;;;3.10;;
16504;SDS011;8365;51.030;4.696;2023-05-29T13:52:12;3.78;;;2.83;;
16504;SDS011;8365;51.030;4.696;2023-05-29T13:54:46;7.43;;;3.47;;
16504;SDS011;8365;51.030;4.696;2023-05-29T13:57:19;6.32;;;3.15;;
16504;SDS011;8365;51.030;4.696;2023-05-29T13:59:49;6.72;;;3.47;;
16504;SDS011;8365;51.030;4.696;2023-05-29T14:02:20;5.63;;;3.28;;
16504;SDS011;8365;51.030;4.696;2023-05-29T14:04:52;5.35;;;3.20;;
16504;SDS011;8365;51.030;4.696;2023-05-29T14:07:23;4.63;;;3.10;;
16504;SDS011;8365;51.030;4.696;2023-05-29T14:09:54;5.97;;;3.58;;
16504;SDS011;8365;51.030;4.696;2023-05-29T14:12:25;5.57;;;3.40;;
16504;SDS011;8365;51.030;4.696;2023-05-29T14:14:55;4.32;;;3.13;;
16504;SDS011;8365;51.030;4.696;2023-05-29T14:17:26;5.22;;;3.10;;
16504;SDS011;8365;51.030;4.696;2023-05-29T14:19:56;7.22;;;3.40;;
16504;SDS011;8365;51.030;4.696;2023-05-29T14:22:27;6.07;;;3.22;;
16504;SDS011;8365;51.030;4.696;2023-05-29T14:24:57;8.38;;;3.42;;
16504;SDS011;8365;51.030;4.696;2023-05-29T14:27:29;6.43;;;3.22;;
16504;SDS011;8365;51.030;4.696;2023-05-29T14:30:00;6.25;;;3.13;;
16504;SDS011;8365;51.030;4.696;2023-05-29T14:32:31;5.10;;;3.10;;
16504;SDS011;8365;51.030;4.696;2023-05-29T14:35:01;6.45;;;3.42;;
16504;SDS011;8365;51.030;4.696;2023-05-29T14:37:32;8.23;;;3.17;;
16504;SDS011;8365;51.030;4.696;2023-05-29T14:40:02;5.85;;;3.25;;
16504;SDS011;8365;51.030;4.696;2023-05-29T14:42:33;5.47;;;3.40;;
16504;SDS011;8365;51.030;4.696;2023-05-29T14:45:04;5.72;;;2.97;;
16504;SDS011;8365;51.030;4.696;2023-05-29T14:47:35;6.85;;;2.90;;
16504;SDS011;8365;51.030;4.696;2023-05-29T14:50:09;7.35;;;3.78;;
16504;SDS011;8365;51.030;4.696;2023-05-29T14:52:39;6.53;;;3.17;;
16504;SDS011;8365;51.030;4.696;2023-05-29T14:55:10;10.40;;;3.65;;
16504;SDS011;8365;51.030;4.696;2023-05-29T14:57:40;8.30;;;3.33;;
16504;SDS011;8365;51.030;4.696;2023-05-29T15:00:11;6.10;;;3.28;;
16504;SDS011;8365;51.030;4.696;2023-05-29T15:02:42;5.63;;;3.25;;
16504;SDS011;8365;51.030;4.696;2023-05-29T15:05:12;6.70;;;3.08;;
16504;SDS011;8365;51.030;4.696;2023-05-29T15:07:43;7.00;;;3.00;;
16504;SDS011;8365;51.030;4.696;2023-05-29T15:10:13;5.22;;;3.30;;
16504;SDS011;8365;51.030;4.696;2023-05-29T15:12:47;7.78;;;3.20;;
16504;SDS011;8365;51.030;4.696;2023-05-29T15:15:17;8.85;;;3.30;;
16504;SDS011;8365;51.030;4.696;2023-05-29T15:17:51;9.30;;;3.72;;
16504;SDS011;8365;51.030;4.696;2023-05-29T15:20:28;6.43;;;3.30;;
16504;SDS011;8365;51.030;4.696;2023-05-29T15:22:58;6.47;;;3.15;;
16504;SDS011;8365;51.030;4.696;2023-05-29T15:25:29;5.78;;;3.10;;
16504;SDS011;8365;51.030;4.696;2023-05-29T15:27:59;7.22;;;3.53;;
16504;SDS011;8365;51.030;4.696;2023-05-29T15:30:30;6.72;;;3.08;;
16504;SDS011;8365;51.030;4.696;2023-05-29T15:33:05;6.10;;;3.15;;
16504;SDS011;8365;51.030;4.696;2023-05-29T15:35:38;6.63;;;3.25;;
16504;SDS011;8365;51.030;4.696;2023-05-29T15:38:09;7.28;;;2.88;;
16504;SDS011;8365;51.030;4.696;2023-05-29T15:40:42;9.10;;;3.58;;
16504;SDS011;8365;51.030;4.696;2023-05-29T15:43:15;5.65;;;3.00;;
16504;SDS011;8365;51.030;4.696;2023-05-29T15:45:45;6.65;;;3.08;;
16504;SDS011;8365;51.030;4.696;2023-05-29T15:48:16;8.38;;;3.30;;